Sti Aqua — V7BN2 — position and weather

sailwx.info

Track history (hours):
 
Tides and Currents Weather Stations Pressure Air Temp Water Temp Dewpoint Dewpoint Depression Visibility Wind Speed Wind Dir Waves Ship Positions

Sti Aqua

Last reported at 2018-Apr-24 15:16 UTC. Time now 2018-Apr-24 16:30 UTC.
Position N 29°21' W 094°47'.

Length 183 m; draft 11.9 m.

Type: Tanker. MMSI: 538005172.

Date/timePositionNaut miles runAvg speedWind from/ knotsBaromVisibWave heightAir tempDewpointWater temp
2018-Apr-24 15:16N 29°21' W 094°47'310.1
2018-Apr-24 15:00N 29°23' W 094°49'510.7
2018-Apr-24 14:30N 29°28' W 094°51'510.7
2018-Apr-24 14:00N 29°33' W 094°54'510.1
2018-Apr-24 13:30N 29°37' W 094°57'4 8.9
2018-Apr-24 13:00N 29°41' W 094°59'4 7.4
2018-Apr-24 12:30N 29°44' W 095°02'4 7.2
2018-Apr-24 12:01N 29°46' W 095°05'2 5.0
2018-Apr-24 11:31N 29°44' W 095°07'2 4.6
2018-Apr-24 11:00N 29°45' W 095°10'1 2.2
2018-Apr-24 10:30N 29°45' W 095°11'  
2018-Apr-20 23:37N 29°45' W 095°11'0 0.0
2018-Apr-20 23:30N 29°45' W 095°11'0 0.0
2018-Apr-20 23:00N 29°45' W 095°11'0 0.7
2018-Apr-20 22:30N 29°45' W 095°12'0 1.0
2018-Apr-20 22:01N 29°45' W 095°11'3 5.8
2018-Apr-20 21:30N 29°44' W 095°08'3 5.5
2018-Apr-20 21:01N 29°46' W 095°05'4 7.9
2018-Apr-20 20:30N 29°44' W 095°01'5 8.2
2018-Apr-20 19:57N 29°40' W 094°58'510.4
2018-Apr-20 19:31N 29°36' W 094°57'612.5
2018-Apr-20 19:00N 29°30' W 094°53'713.3
2018-Apr-20 18:30N 29°24' W 094°49'612.3
2018-Apr-20 17:59N 29°21' W 094°43'712.6
2018-Apr-20 17:27N 29°18' W 094°36'510.4
2018-Apr-20 17:00N 29°16' W 094°31'2 3.9
2018-Apr-20 16:26N 29°16' W 094°29'0 0.0
2018-Apr-20 09:53N 29°16' W 094°29'0 0.0
2018-Apr-20 06:29N 29°16' W 094°29'0 0.0
2018-Apr-20 05:59N 29°16' W 094°29'0 0.0
2018-Apr-20 05:17N 29°16' W 094°29'0 0.0
2018-Apr-20 03:08N 29°16' W 094°29'0 0.0
2018-Apr-19 07:53N 29°16' W 094°29'0 0.0
2018-Apr-19 07:29N 29°16' W 094°29'0 0.0
2018-Apr-19 06:59N 29°16' W 094°29'0 0.0
2018-Apr-19 06:29N 29°16' W 094°29'0 0.0
2018-Apr-19 05:56N 29°16' W 094°29'0 0.0
2018-Apr-19 04:41N 29°16' W 094°29'0 0.1
2018-Apr-19 04:29N 29°16' W 094°29'0 0.0
2018-Apr-19 03:56N 29°16' W 094°29'0 0.1
2018-Apr-19 01:08N 29°16' W 094°29'1 3.1
2018-Apr-19 00:57N 29°15' W 094°28'4 7.5
2018-Apr-19 00:23N 29°12' W 094°26'3112.8
2018-Apr-18 21:58N 28°41' W 094°25'3113.2
2018-Apr-18 19:36N 28°09' W 094°25'313.4
2018-Apr-18 19:24N 28°07' W 094°25'2513.7
2018-Apr-18 17:36N 27°42' W 094°25'313.0
2018-Apr-18 17:23N 27°39' W 094°24'4812.9
2018-Apr-18 13:39N 27°01' W 093°52'313.5
2018-Apr-18 13:24N 26°58' W 093°49'513.5
2018-Apr-18 13:00N 26°54' W 093°46'713.4
2018-Apr-18 12:30N 26°49' W 093°41'913.5
2018-Apr-18 11:49N 26°41' W 093°36'913.5
2018-Apr-18 11:09N 26°34' W 093°30'213.5
2018-Apr-18 11:00N 26°32' W 093°28'713.6
2018-Apr-18 10:28N 26°27' W 093°23'8713.0
2018-Apr-18 03:48N 25°38' W 092°03'713.5
2018-Apr-18 03:19N 25°36' W 091°56'713.6
2018-Apr-18 02:46N 25°33' W 091°48'413.6
2018-Apr-18 02:30N 25°32' W 091°44'  
Track history (hours):
 
Tides and Currents Weather Stations Pressure Air Temp Water Temp Dewpoint Dewpoint Depression Visibility Wind Speed Wind Dir Waves Ship Positions

Sti Aqua

Last reported at 2018-Apr-24 15:16 UTC. Time now 2018-Apr-24 16:30 UTC.
Position N 29°21' W 094°47'.

Length 183 m; draft 11.9 m.

Type: Tanker. MMSI: 538005172.

Date/timePositionNaut miles runAvg speedWind from/ knotsBaromVisibWave heightAir tempDewpointWater temp
2018-Apr-24 15:16N 29°21' W 094°47'310.1
2018-Apr-24 15:00N 29°23' W 094°49'510.7
2018-Apr-24 14:30N 29°28' W 094°51'510.7
2018-Apr-24 14:00N 29°33' W 094°54'510.1
2018-Apr-24 13:30N 29°37' W 094°57'4 8.9
2018-Apr-24 13:00N 29°41' W 094°59'4 7.4
2018-Apr-24 12:30N 29°44' W 095°02'4 7.2
2018-Apr-24 12:01N 29°46' W 095°05'2 5.0
2018-Apr-24 11:31N 29°44' W 095°07'2 4.6
2018-Apr-24 11:00N 29°45' W 095°10'1 2.2
2018-Apr-24 10:30N 29°45' W 095°11'  
2018-Apr-20 23:37N 29°45' W 095°11'0 0.0
2018-Apr-20 23:30N 29°45' W 095°11'0 0.0
2018-Apr-20 23:00N 29°45' W 095°11'0 0.7
2018-Apr-20 22:30N 29°45' W 095°12'0 1.0
2018-Apr-20 22:01N 29°45' W 095°11'3 5.8
2018-Apr-20 21:30N 29°44' W 095°08'3 5.5
2018-Apr-20 21:01N 29°46' W 095°05'4 7.9
2018-Apr-20 20:30N 29°44' W 095°01'5 8.2
2018-Apr-20 19:57N 29°40' W 094°58'510.4
2018-Apr-20 19:31N 29°36' W 094°57'612.5
2018-Apr-20 19:00N 29°30' W 094°53'713.3
2018-Apr-20 18:30N 29°24' W 094°49'612.3
2018-Apr-20 17:59N 29°21' W 094°43'712.6
2018-Apr-20 17:27N 29°18' W 094°36'510.4
2018-Apr-20 17:00N 29°16' W 094°31'2 3.9
2018-Apr-20 16:26N 29°16' W 094°29'0 0.0
2018-Apr-20 09:53N 29°16' W 094°29'0 0.0
2018-Apr-20 06:29N 29°16' W 094°29'0 0.0
2018-Apr-20 05:59N 29°16' W 094°29'0 0.0
2018-Apr-20 05:17N 29°16' W 094°29'0 0.0
2018-Apr-20 03:08N 29°16' W 094°29'0 0.0
2018-Apr-19 07:53N 29°16' W 094°29'0 0.0
2018-Apr-19 07:29N 29°16' W 094°29'0 0.0
2018-Apr-19 06:59N 29°16' W 094°29'0 0.0
2018-Apr-19 06:29N 29°16' W 094°29'0 0.0
2018-Apr-19 05:56N 29°16' W 094°29'0 0.0
2018-Apr-19 04:41N 29°16' W 094°29'0 0.1
2018-Apr-19 04:29N 29°16' W 094°29'0 0.0
2018-Apr-19 03:56N 29°16' W 094°29'0 0.1
2018-Apr-19 01:08N 29°16' W 094°29'1 3.1
2018-Apr-19 00:57N 29°15' W 094°28'4 7.5
2018-Apr-19 00:23N 29°12' W 094°26'3112.8
2018-Apr-18 21:58N 28°41' W 094°25'3113.2
2018-Apr-18 19:36N 28°09' W 094°25'313.4
2018-Apr-18 19:24N 28°07' W 094°25'2513.7
2018-Apr-18 17:36N 27°42' W 094°25'313.0
2018-Apr-18 17:23N 27°39' W 094°24'4812.9
2018-Apr-18 13:39N 27°01' W 093°52'313.5
2018-Apr-18 13:24N 26°58' W 093°49'513.5
2018-Apr-18 13:00N 26°54' W 093°46'713.4
2018-Apr-18 12:30N 26°49' W 093°41'913.5
2018-Apr-18 11:49N 26°41' W 093°36'913.5
2018-Apr-18 11:09N 26°34' W 093°30'213.5
2018-Apr-18 11:00N 26°32' W 093°28'713.6
2018-Apr-18 10:28N 26°27' W 093°23'8713.0
2018-Apr-18 03:48N 25°38' W 092°03'713.5
2018-Apr-18 03:19N 25°36' W 091°56'713.6
2018-Apr-18 02:46N 25°33' W 091°48'413.6
2018-Apr-18 02:30N 25°32' W 091°44'  

Dump ship's entire track history